This is the latest recevied weather packets stored in our database for station/object WA1TYB-13. If no packets are shown the sender has not sent any weather packets the latest 1 day(s).
| Time | Temp. | Humidity | Pressure | Rain* | Wind** | Luminosity | Snow |
|---|---|---|---|---|---|---|---|
| 1777993852 | 5.56° C | 54% | 1019.9 hPa | 0 mm | 1.34 m/s, 16° | 193 W/m² | - |
| 1777993548 | 5° C | 55% | 1020.4 hPa | 0 mm | 1.34 m/s, 340° | 178 W/m² | - |
| 1777993244 | 5° C | 55% | 1020 hPa | 0 mm | 1.34 m/s, 314° | 203 W/m² | - |
| 1777992940 | 4.44° C | 58% | 1020.4 hPa | 0 mm | 1.34 m/s, 346° | 163 W/m² | - |
| 1777992639 | 4.44° C | 59% | 1020.2 hPa | 0 mm | 0.89 m/s, 2° | 153 W/m² | - |
| 1777992336 | 4.44° C | 62% | 1020.2 hPa | 0 mm | 0.89 m/s, 309° | 148 W/m² | - |
| 1777992033 | 4.44° C | 62% | 1020.3 hPa | 0 mm | 0.89 m/s, 334° | 141 W/m² | - |
| 1777991731 | 3.89° C | 63% | 1020.3 hPa | 0 mm | 0 m/s | 140 W/m² | - |
| 1777991428 | 3.89° C | 62% | 1019.9 hPa | 0 mm | 0.45 m/s, 288° | 138 W/m² | - |
| 1777991125 | 3.89° C | 62% | 1020 hPa | 0 mm | 0.45 m/s, 283° | 134 W/m² | - |
| 1777990822 | 3.89° C | 62% | 1020 hPa | 0 mm | 0.45 m/s, 311° | 130 W/m² | - |
| 1777990520 | 3.33° C | 63% | 1019.9 hPa | 0 mm | 0.45 m/s, 311° | 117 W/m² | - |
| 1777990216 | 3.33° C | 63% | 1020.3 hPa | 0 mm | 0.89 m/s, 347° | 109 W/m² | - |
| 1777989914 | 3.33° C | 62% | 1019.8 hPa | 0 mm | 0.89 m/s, 293° | 112 W/m² | - |
| 1777989610 | 3.33° C | 63% | 1020.3 hPa | 0 mm | 1.34 m/s, 262° | 111 W/m² | - |
| 1777989306 | 3.33° C | 64% | 1019.8 hPa | 0 mm | 0.45 m/s, 275° | 99 W/m² | - |
| 1777989003 | 2.78° C | 63% | 1019.7 hPa | 0 mm | 0.45 m/s, 308° | 92 W/m² | - |
| 1777988699 | 2.78° C | 63% | 1020 hPa | 0 mm | 0.89 m/s, 296° | 88 W/m² | - |
| 1777988396 | 2.78° C | 67% | 1020 hPa | 0 mm | 1.34 m/s, 289° | 78 W/m² | - |
| 1777988093 | 2.78° C | 67% | 1019.7 hPa | 0 mm | 0.45 m/s, 314° | 73 W/m² | - |
| 1777987788 | 2.22° C | 67% | 1019.8 hPa | 0 mm | 0.45 m/s, 303° | 73 W/m² | - |
| 1777987485 | 2.22° C | 67% | 1019.8 hPa | 0 mm | 0.45 m/s, 302° | 64 W/m² | - |
| 1777987183 | 2.22° C | 67% | 1019.6 hPa | 0 mm | 0.89 m/s, 251° | 55 W/m² | - |
| 1777986880 | 1.67° C | 66% | 1019.6 hPa | 0 mm | 0.45 m/s, 244° | 48 W/m² | - |
| 1777986578 | 1.67° C | 66% | 1019.6 hPa | 0 mm | 0 m/s | 46 W/m² | - |
* Rain latest hour (hover to see other rain measurements)
** Current wind speed in m/s (hover to see current wind gust speed)